Rechercher aéroport 
image banner adimage banner adimage banner ad
image banner ad

KCEC - Jack Mc Namara Field

Situé à Crescent City, United States

ICAO - CEC, IATA - CEC

Données fournies par Airmate  

Information générale

Coordonnées: N41°46'49" W124°14'12"
Élévation : 61 feet MSL.
Variation magnétique : 14° East
Voir autres Aéroports à California

Données opérationnelles

Special qualification required
Heure actuelle UTC:
Heure actuelle locale:
Météo
METAR: KCEC 262309Z AUTO 19008KT 10SM BKN004 13/10 A2992 RMK AO2 T01280100
TAF: KCEC 262202Z 2622/2718 19010KT P6SM SKC FM270600 17009KT 3/4SM BR VCSH OVC004 FM270800 18004KT 1/4SM FG OVC003
Voir NOTAMs / SUP AIP / TFR affectant cet aéroport [VIEW]
Fréquences de communication: [VIEW]

Pistes:

Identifiant RWYQFULongueur (ft)Largeur (ft)SurfaceLDA (ft)
12133°5002150ASPH
18193°5000150ASPH
30313°5002150ASPH
3613°5000150ASPH

Coordonnées de l'aéroport

Adresse: Crescent City United States

Vue satellite de KCEC